Forester — DIUT — position and weather

sailwx.info

Track history (hours):
 
Tides and Currents Weather Stations Pressure Air Temp Water Temp Dewpoint Dewpoint Depression Visibility Wind Speed Wind Dir Waves Ship Positions

Forester

Last reported at 2017-Jan-12 02:16 UTC. Time now 2017-Jan-22 10:04 UTC.
Position N 36°24' E 014°49'.
Warning: this ship's position is 10 days out of date.

Length 100 m; draft 6.7 m.

Type: Ship. MMSI: 211233870.

Date/timePositionNaut miles runAvg speedWind from/ knotsBaromVisibWave heightAir tempDewpointWater temp
2017-Jan-12 02:16N 36°24' E 014°49'710.0
2017-Jan-12 01:33N 36°26' E 014°40'1010.1
2017-Jan-12 00:33N 36°30' E 014°28'1010.1
2017-Jan-11 23:33N 36°33' E 014°16'1010.0
2017-Jan-11 22:33N 36°35' E 014°04'  
2017-Jan-08 08:31N 36°01' W 005°06'1111.8
2017-Jan-08 07:33N 35°59' W 005°20'1211.2
2017-Jan-08 06:29N 35°56' W 005°34'247 8.8
2017-Jan-07 02:23N 38°09' W 009°55'1011.4
2017-Jan-07 01:33N 38°18' W 009°58'  
2017-Jan-04 09:31N 49°04' W 005°19'17 8.3
2017-Jan-04 07:30N 49°13' W 004°57'1110.2
2017-Jan-04 06:27N 49°18' W 004°43'1010.7
2017-Jan-04 05:30N 49°23' W 004°29'1111.3
2017-Jan-04 04:31N 49°29' W 004°15'1312.0
2017-Jan-04 03:27N 49°36' W 003°58'1112.1
2017-Jan-04 02:30N 49°42' W 003°43'1111.8
2017-Jan-04 01:32N 49°48' W 003°27'1110.9
2017-Jan-04 00:33N 49°53' W 003°13'10 9.9
2017-Jan-03 23:33N 49°57' W 002°59'9 9.2
2017-Jan-03 22:33N 50°00' W 002°46'8711.7
2017-Jan-03 15:08N 50°26' W 000°36'611.2
2017-Jan-03 14:33N 50°28' W 000°27'1110.3
2017-Jan-03 13:31N 50°31' W 000°10'9 9.7
2017-Jan-03 12:33N 50°33' E 000°04'9 8.9
2017-Jan-03 11:33N 50°36' E 000°17'12 9.6
2017-Jan-03 10:18N 50°39' E 000°35'2111.6
2017-Jan-03 08:29N 50°52' E 001°02'1212.3
2017-Jan-03 07:33N 50°59' E 001°16'1111.5
2017-Jan-03 06:33N 51°06' E 001°30'1010.1
2017-Jan-03 05:33N 51°13' E 001°42'10 9.5
2017-Jan-03 04:33N 51°20' E 001°52'10 9.6
2017-Jan-03 03:33N 51°28' E 002°00'1010.1
2017-Jan-03 02:33N 51°36' E 002°11'  
Track history (hours):
 
Tides and Currents Weather Stations Pressure Air Temp Water Temp Dewpoint Dewpoint Depression Visibility Wind Speed Wind Dir Waves Ship Positions

Forester

Last reported at 2017-Jan-12 02:16 UTC. Time now 2017-Jan-22 10:04 UTC.
Position N 36°24' E 014°49'.
Warning: this ship's position is 10 days out of date.

Length 100 m; draft 6.7 m.

Type: Ship. MMSI: 211233870.

Date/timePositionNaut miles runAvg speedWind from/ knotsBaromVisibWave heightAir tempDewpointWater temp
2017-Jan-12 02:16N 36°24' E 014°49'710.0
2017-Jan-12 01:33N 36°26' E 014°40'1010.1
2017-Jan-12 00:33N 36°30' E 014°28'1010.1
2017-Jan-11 23:33N 36°33' E 014°16'1010.0
2017-Jan-11 22:33N 36°35' E 014°04'  
2017-Jan-08 08:31N 36°01' W 005°06'1111.8
2017-Jan-08 07:33N 35°59' W 005°20'1211.2
2017-Jan-08 06:29N 35°56' W 005°34'247 8.8
2017-Jan-07 02:23N 38°09' W 009°55'1011.4
2017-Jan-07 01:33N 38°18' W 009°58'  
2017-Jan-04 09:31N 49°04' W 005°19'17 8.3
2017-Jan-04 07:30N 49°13' W 004°57'1110.2
2017-Jan-04 06:27N 49°18' W 004°43'1010.7
2017-Jan-04 05:30N 49°23' W 004°29'1111.3
2017-Jan-04 04:31N 49°29' W 004°15'1312.0
2017-Jan-04 03:27N 49°36' W 003°58'1112.1
2017-Jan-04 02:30N 49°42' W 003°43'1111.8
2017-Jan-04 01:32N 49°48' W 003°27'1110.9
2017-Jan-04 00:33N 49°53' W 003°13'10 9.9
2017-Jan-03 23:33N 49°57' W 002°59'9 9.2
2017-Jan-03 22:33N 50°00' W 002°46'8711.7
2017-Jan-03 15:08N 50°26' W 000°36'611.2
2017-Jan-03 14:33N 50°28' W 000°27'1110.3
2017-Jan-03 13:31N 50°31' W 000°10'9 9.7
2017-Jan-03 12:33N 50°33' E 000°04'9 8.9
2017-Jan-03 11:33N 50°36' E 000°17'12 9.6
2017-Jan-03 10:18N 50°39' E 000°35'2111.6
2017-Jan-03 08:29N 50°52' E 001°02'1212.3
2017-Jan-03 07:33N 50°59' E 001°16'1111.5
2017-Jan-03 06:33N 51°06' E 001°30'1010.1
2017-Jan-03 05:33N 51°13' E 001°42'10 9.5
2017-Jan-03 04:33N 51°20' E 001°52'10 9.6
2017-Jan-03 03:33N 51°28' E 002°00'1010.1
2017-Jan-03 02:33N 51°36' E 002°11'  

Dump ship's entire track history